This is the latest recevied weather packets stored in our database for station/object KD8YBJ. If no packets are shown the sender has not sent any weather packets the latest 10 day(s).
| Time | Temp. | Humidity | Pressure | Rain* | Wind** | Luminosity | Snow |
|---|---|---|---|---|---|---|---|
| 1778277019 | 15.56° C | 30% | 1007.3 hPa | 0 mm | - | 447 W/m² | - |
| 1778268619 | 14.44° C | 39% | 1008.8 hPa | 0 mm | - | 800 W/m² | - |
| 1778265618 | 14.44° C | 45% | 1008.9 hPa | 0 mm | - | 809 W/m² | - |
| 1778263237 | 15° C | 37% | 1009.4 hPa | 0 mm | - | 494 W/m² | - |
| 1778257819 | 14.44° C | 38% | 1010.3 hPa | 0 mm | - | 798 W/m² | - |
| 1778257217 | 13.89° C | 40% | 1010.2 hPa | 0 mm | - | 815 W/m² | - |
| 1778256617 | 13.89° C | 40% | 1010 hPa | 0 mm | - | 768 W/m² | - |
| 1778256017 | 13.89° C | 40% | 1010.2 hPa | 0 mm | - | 503 W/m² | - |
| 1778254218 | 13.33° C | 53% | 1010.5 hPa | 0 mm | - | 245 W/m² | - |
| 1778253618 | 12.78° C | 60% | 1010.4 hPa | 0 mm | - | 292 W/m² | - |
| 1778250636 | 11.67° C | 70% | 1010.6 hPa | 0 mm | - | 190 W/m² | - |
| 1778248817 | 11.67° C | 67% | 1010.5 hPa | 0 mm | - | 148 W/m² | - |
| 1778248257 | 11.11° C | 67% | 1010.7 hPa | 0 mm | - | 115 W/m² | - |
| 1778247017 | 10° C | 70% | 1010.6 hPa | 0 mm | - | 125 W/m² | - |
| 1778245839 | 8.89° C | 73% | 1010.8 hPa | 0 mm | - | 59 W/m² | - |
| 1778240416 | 1.67° C | 96% | 1010.8 hPa | 0 mm | - | 25 W/m² | - |
| 1778239217 | 0.56° C | 96% | 1010.9 hPa | 0 mm | - | 19 W/m² | - |
| 1778236218 | 0.56° C | 95% | 1010.9 hPa | 0 mm | - | 1 W/m² | - |
| 1778235617 | 0.56° C | 95% | 1010.9 hPa | 0 mm | - | 1 W/m² | - |
| 1778230237 | 1.11° C | 92% | 1011.5 hPa | 0 mm | - | 0 W/m² | - |
| 1778229016 | 1.67° C | 91% | 1011.3 hPa | 0 mm | - | 0 W/m² | - |
| 1778227257 | 1.67° C | 89% | 1011.5 hPa | 0 mm | - | 0 W/m² | - |
| 1778225416 | 2.78° C | 86% | 1011.5 hPa | 0 mm | - | 0 W/m² | - |
| 1778224817 | 2.78° C | 86% | 1011.4 hPa | 0 mm | - | 0 W/m² | - |
| 1778216416 | 3.33° C | 82% | 1012.4 hPa | 0 mm | - | 0 W/m² | - |
* Rain latest hour (hover to see other rain measurements)
** Current wind speed in m/s (hover to see current wind gust speed)